createdAt,value
2023-04-20T00:00:47.185Z,7.89
2023-04-20T00:03:13.586Z,7.86
2023-04-20T00:05:39.921Z,7.78
2023-04-20T00:08:06.208Z,7.74
2023-04-20T00:10:32.443Z,7.70
2023-04-20T00:12:58.681Z,7.70
2023-04-20T00:15:24.919Z,7.67
2023-04-20T00:17:51.211Z,7.66
2023-04-20T00:20:17.497Z,7.66
2023-04-20T00:22:43.746Z,7.66
2023-04-20T00:25:09.991Z,7.61
2023-04-20T00:27:36.212Z,7.47
2023-04-20T00:30:02.475Z,7.42
2023-04-20T00:32:29.011Z,7.47
2023-04-20T00:34:55.253Z,7.45
2023-04-20T00:37:21.484Z,7.46
2023-04-20T00:39:47.742Z,7.44
2023-04-20T00:42:14.023Z,7.41
2023-04-20T00:44:40.271Z,7.38
2023-04-20T00:47:06.501Z,7.31
2023-04-20T00:49:32.792Z,7.32
2023-04-20T00:51:59.087Z,7.29
2023-04-20T00:54:25.344Z,7.31
2023-04-20T00:56:51.589Z,7.30
2023-04-20T00:59:17.990Z,7.24
2023-04-20T01:01:44.466Z,7.21
2023-04-20T01:04:10.865Z,7.26
2023-04-20T01:06:37.216Z,7.16
2023-04-20T01:09:03.490Z,7.20
2023-04-20T01:11:29.733Z,7.22
2023-04-20T01:13:55.991Z,7.16
2023-04-20T01:16:22.313Z,7.16
2023-04-20T01:18:48.644Z,7.22
2023-04-20T01:21:14.932Z,7.24
2023-04-20T01:23:41.163Z,7.17
2023-04-20T01:26:07.485Z,7.13
2023-04-20T01:28:33.760Z,7.08
2023-04-20T01:31:00.004Z,7.03
2023-04-20T01:33:26.311Z,6.98
2023-04-20T01:35:52.568Z,6.94
2023-04-20T01:38:18.822Z,6.95
2023-04-20T01:40:45.172Z,6.97
2023-04-20T01:43:11.459Z,7.04
2023-04-20T01:45:37.760Z,6.84
2023-04-20T01:48:04.111Z,6.80
2023-04-20T01:50:30.421Z,6.85
2023-04-20T01:52:56.663Z,6.91
2023-04-20T01:55:22.880Z,6.84
2023-04-20T01:57:49.159Z,6.86
2023-04-20T02:00:15.466Z,6.87
2023-04-20T02:02:41.846Z,6.88
2023-04-20T02:05:08.180Z,6.82
2023-04-20T02:07:34.430Z,6.88
2023-04-20T02:10:00.670Z,6.84
2023-04-20T02:12:26.963Z,6.82
2023-04-20T02:14:53.193Z,6.83
2023-04-20T02:17:19.527Z,6.78
2023-04-20T02:19:45.800Z,6.70
2023-04-20T02:22:12.058Z,6.52
2023-04-20T02:24:38.328Z,6.50
2023-04-20T02:27:04.591Z,6.54
2023-04-20T02:29:30.832Z,6.59
2023-04-20T02:31:57.062Z,6.60
2023-04-20T02:34:23.312Z,6.63
2023-04-20T02:36:49.590Z,6.51
2023-04-20T02:39:16.160Z,6.25
2023-04-20T02:41:42.765Z,6.30
2023-04-20T02:44:08.988Z,6.37
2023-04-20T02:46:35.311Z,6.45
2023-04-20T02:49:01.605Z,6.43
2023-04-20T02:51:27.914Z,6.45
2023-04-20T02:53:54.166Z,6.49
2023-04-20T02:56:20.436Z,6.60
2023-04-20T02:58:46.800Z,6.48
2023-04-20T03:01:13.034Z,6.44
2023-04-20T03:03:39.386Z,6.45
2023-04-20T03:06:05.821Z,6.42
2023-04-20T03:08:32.073Z,6.42
2023-04-20T03:10:58.299Z,6.38
2023-04-20T03:13:24.541Z,6.42
2023-04-20T03:15:50.790Z,6.45
2023-04-20T03:18:17.058Z,6.43
2023-04-20T03:20:43.293Z,6.39
2023-04-20T03:23:09.552Z,6.33
2023-04-20T03:25:35.821Z,6.27
2023-04-20T03:28:02.098Z,6.34
2023-04-20T03:30:28.361Z,6.34
2023-04-20T03:32:54.625Z,6.29
2023-04-20T03:35:20.944Z,6.31
2023-04-20T03:37:47.222Z,6.31
2023-04-20T03:40:13.501Z,6.21
2023-04-20T03:42:39.770Z,6.25
2023-04-20T03:45:06.016Z,6.29
2023-04-20T03:47:32.289Z,6.31
2023-04-20T03:49:58.598Z,6.32
2023-04-20T03:52:24.848Z,6.31
2023-04-20T03:54:51.109Z,6.32
2023-04-20T03:57:17.370Z,6.32
2023-04-20T03:59:43.650Z,6.35
2023-04-20T04:02:10.047Z,6.34
2023-04-20T04:04:36.462Z,6.32
2023-04-20T04:07:02.816Z,6.32
2023-04-20T04:09:29.161Z,6.31
2023-04-20T04:11:55.446Z,6.28
2023-04-20T04:14:21.858Z,6.33
2023-04-20T04:16:48.124Z,6.37
2023-04-20T04:19:14.711Z,6.44
2023-04-20T04:21:41.005Z,6.49
2023-04-20T04:24:07.278Z,6.49
2023-04-20T04:26:33.560Z,6.47
2023-04-20T04:28:59.874Z,6.52
2023-04-20T04:31:26.152Z,6.55
2023-04-20T04:33:52.470Z,6.54
2023-04-20T04:36:18.801Z,6.47
2023-04-20T04:38:45.056Z,6.47
2023-04-20T04:41:11.297Z,6.55
2023-04-20T04:43:37.596Z,6.45
2023-04-20T04:46:03.875Z,6.51
2023-04-20T04:48:30.165Z,6.58
2023-04-20T04:50:56.413Z,6.62
2023-04-20T04:53:22.701Z,6.62
2023-04-20T04:55:48.991Z,6.64
2023-04-20T04:58:15.232Z,6.57
2023-04-20T05:00:41.492Z,6.54
2023-04-20T05:03:07.875Z,6.62
2023-04-20T05:05:34.301Z,6.74
2023-04-20T05:08:00.594Z,6.81
2023-04-20T05:10:26.844Z,6.93
2023-04-20T05:12:53.103Z,7.00
2023-04-20T05:15:19.327Z,7.04
2023-04-20T05:17:45.645Z,7.11
2023-04-20T05:20:11.971Z,7.16
2023-04-20T05:22:38.214Z,7.23
2023-04-20T05:25:04.468Z,7.30
2023-04-20T05:27:30.730Z,7.30
2023-04-20T05:30:03.711Z,7.36
2023-04-20T05:32:39.269Z,7.24
2023-04-20T05:35:05.511Z,7.34
2023-04-20T05:37:31.757Z,7.41
2023-04-20T05:39:58.017Z,7.47
2023-04-20T05:42:24.304Z,7.58
2023-04-20T05:44:50.591Z,7.64
2023-04-20T05:47:16.888Z,7.68
2023-04-20T05:49:43.260Z,7.73
2023-04-20T05:52:09.590Z,7.79
2023-04-20T05:54:35.830Z,7.90
2023-04-20T05:57:02.083Z,8.04
2023-04-20T05:59:28.313Z,8.17
2023-04-20T06:01:54.603Z,8.26
2023-04-20T06:04:21.148Z,8.22
2023-04-20T06:06:47.576Z,8.32
2023-04-20T06:09:13.956Z,8.44
2023-04-20T06:11:40.477Z,8.56
2023-04-20T06:14:07.480Z,8.72
2023-04-20T06:16:33.968Z,8.89
2023-04-20T06:19:00.434Z,8.93
2023-04-20T06:21:26.814Z,9.01
2023-04-20T06:23:53.243Z,9.04
2023-04-20T06:26:19.673Z,9.18
2023-04-20T06:28:46.657Z,9.22
2023-04-20T06:31:13.071Z,9.28
2023-04-20T06:33:39.519Z,9.33
2023-04-20T06:36:07.004Z,9.33
2023-04-20T06:38:33.797Z,9.38
2023-04-20T06:41:00.221Z,9.38
2023-04-20T06:43:26.646Z,9.38
2023-04-20T06:45:53.026Z,9.44
2023-04-20T06:48:31.580Z,9.47
2023-04-20T06:50:58.861Z,9.19
2023-04-20T06:53:25.173Z,9.11
2023-04-20T06:55:51.588Z,9.21
2023-04-20T06:58:17.995Z,9.24
2023-04-20T07:00:44.430Z,9.38
2023-04-20T07:03:11.092Z,9.60
2023-04-20T07:05:37.670Z,9.92
2023-04-20T07:08:04.123Z,10.19
2023-04-20T07:10:30.519Z,10.45
2023-04-20T07:12:56.929Z,10.39
2023-04-20T07:15:23.222Z,10.33
2023-04-20T07:17:49.562Z,10.14
2023-04-20T07:20:15.821Z,10.10
2023-04-20T07:22:42.089Z,10.07
2023-04-20T07:25:08.414Z,10.02
2023-04-20T07:27:34.702Z,9.79
2023-04-20T07:30:00.944Z,9.78
2023-04-20T07:32:27.419Z,9.77
2023-04-20T07:34:53.817Z,9.92
2023-04-20T07:37:20.087Z,10.06
2023-04-20T07:39:46.355Z,9.78
2023-04-20T07:42:12.616Z,9.85
2023-04-20T07:44:39.087Z,10.06
2023-04-20T07:47:05.329Z,10.22
2023-04-20T07:49:31.617Z,10.44
2023-04-20T07:52:09.290Z,10.23
2023-04-20T07:54:41.782Z,9.76
2023-04-20T07:57:08.102Z,9.86
2023-04-20T07:59:34.372Z,10.13
2023-04-20T08:02:00.854Z,10.36
2023-04-20T08:04:27.678Z,10.64
2023-04-20T08:06:54.209Z,10.97
2023-04-20T08:09:20.452Z,10.92
2023-04-20T08:11:46.796Z,11.16
2023-04-20T08:14:13.209Z,11.41
2023-04-20T08:16:40.360Z,11.71
2023-04-20T08:19:06.714Z,11.92
2023-04-20T08:21:33.149Z,12.12
2023-04-20T08:23:59.427Z,12.12
2023-04-20T08:26:25.796Z,11.63
2023-04-20T08:28:52.170Z,11.78
2023-04-20T08:31:18.437Z,11.95
2023-04-20T08:33:44.721Z,11.94
2023-04-20T08:36:10.985Z,12.00
2023-04-20T08:38:37.430Z,12.18
2023-04-20T08:41:03.691Z,12.65
2023-04-20T08:43:30.396Z,13.04
2023-04-20T08:45:56.786Z,13.26
2023-04-20T08:48:23.053Z,13.37
2023-04-20T08:50:49.305Z,13.37
2023-04-20T08:53:15.697Z,12.73
2023-04-20T08:55:41.963Z,12.71
2023-04-20T08:58:08.250Z,12.93
2023-04-20T09:00:34.596Z,12.71
2023-04-20T09:03:01.073Z,12.68
2023-04-20T09:05:27.728Z,12.68
2023-04-20T09:07:54.049Z,12.24
2023-04-20T09:10:20.482Z,11.03
2023-04-20T09:12:47.104Z,10.44
2023-04-20T09:15:13.424Z,9.87
2023-04-20T09:17:39.706Z,9.98
2023-04-20T09:20:05.977Z,9.58
2023-04-20T09:22:32.273Z,9.53
2023-04-20T09:24:58.539Z,9.46
2023-04-20T09:27:24.814Z,9.72
2023-04-20T09:29:51.062Z,9.87
2023-04-20T09:32:17.344Z,9.49
2023-04-20T09:34:43.832Z,9.15
2023-04-20T09:37:10.144Z,9.28
2023-04-20T09:39:36.420Z,9.26
2023-04-20T09:42:02.668Z,9.20
2023-04-20T09:44:28.955Z,9.09
2023-04-20T09:46:55.222Z,9.32
2023-04-20T09:49:21.462Z,9.33
2023-04-20T09:51:47.710Z,9.41
2023-04-20T09:54:13.978Z,9.70
2023-04-20T09:56:40.236Z,9.43
2023-04-20T09:59:06.497Z,9.09
2023-04-20T10:01:32.757Z,8.86
2023-04-20T10:03:59.362Z,8.84
2023-04-20T10:06:26.398Z,8.71
2023-04-20T10:08:52.638Z,8.82
2023-04-20T10:11:18.902Z,9.00
2023-04-20T10:13:45.163Z,8.66
2023-04-20T10:16:11.469Z,8.47
2023-04-20T10:18:37.846Z,8.53
2023-04-20T10:21:04.200Z,8.37
2023-04-20T10:23:30.448Z,7.74
2023-04-20T10:25:56.704Z,7.69
2023-04-20T10:28:22.971Z,7.57
2023-04-20T10:30:49.273Z,7.29
2023-04-20T10:33:15.612Z,7.56
2023-04-20T10:35:43.347Z,7.74
2023-04-20T10:38:11.532Z,7.51
2023-04-20T10:40:37.775Z,7.68
2023-04-20T10:43:04.037Z,7.70
2023-04-20T10:45:30.285Z,7.48
2023-04-20T10:47:56.609Z,6.66
2023-04-20T10:50:22.899Z,6.70
2023-04-20T10:52:49.147Z,6.57
2023-04-20T10:55:15.405Z,6.71
2023-04-20T10:57:41.665Z,6.90
2023-04-20T11:00:07.896Z,7.04
2023-04-20T11:02:34.373Z,6.98
2023-04-20T11:05:01.019Z,6.84
2023-04-20T11:07:27.580Z,7.04
2023-04-20T11:09:54.034Z,7.16
2023-04-20T11:12:20.517Z,7.21
2023-04-20T11:14:46.911Z,7.50
2023-04-20T11:17:13.380Z,7.82
2023-04-20T11:19:40.300Z,8.03
2023-04-20T11:22:06.848Z,8.10
2023-04-20T11:24:33.319Z,8.23
2023-04-20T11:26:59.727Z,8.19
2023-04-20T11:29:26.197Z,8.26
2023-04-20T11:31:52.596Z,8.37
2023-04-20T11:34:19.094Z,8.27
2023-04-20T11:36:45.913Z,8.42
2023-04-20T11:39:12.153Z,8.62
2023-04-20T11:41:38.418Z,7.78
2023-04-20T11:44:04.681Z,7.54
2023-04-20T11:46:31.190Z,7.69
2023-04-20T11:48:57.717Z,8.04
2023-04-20T11:51:23.992Z,8.37
2023-04-20T11:53:50.272Z,8.48
2023-04-20T11:56:16.583Z,8.81
2023-04-20T11:58:42.883Z,9.09
2023-04-20T12:01:09.148Z,9.17
2023-04-20T12:03:35.483Z,9.27
2023-04-20T12:06:01.893Z,9.26
2023-04-20T12:08:28.229Z,8.80
2023-04-20T12:10:55.974Z,8.73
2023-04-20T12:13:23.579Z,7.88
2023-04-20T12:15:49.865Z,7.90
2023-04-20T12:18:16.137Z,7.81
2023-04-20T12:20:42.428Z,7.94
2023-04-20T12:23:08.732Z,8.14
2023-04-20T12:25:35.051Z,8.30
2023-04-20T12:28:01.339Z,8.35
2023-04-20T12:30:27.579Z,8.44
2023-04-20T12:32:53.985Z,8.48
2023-04-20T12:35:20.283Z,8.49
2023-04-20T12:37:46.543Z,8.36
2023-04-20T12:40:12.821Z,8.36
2023-04-20T12:42:39.105Z,8.11
2023-04-20T12:45:05.370Z,7.74
2023-04-20T12:47:31.738Z,7.60
2023-04-20T12:49:58.052Z,7.77
2023-04-20T12:52:24.308Z,7.95
2023-04-20T12:54:50.555Z,8.07
2023-04-20T12:57:16.898Z,8.13
2023-04-20T12:59:43.208Z,8.30
2023-04-20T13:02:09.585Z,8.52
2023-04-20T13:04:35.983Z,8.68
2023-04-20T13:07:02.418Z,8.82
2023-04-20T13:09:28.670Z,8.75
2023-04-20T13:11:54.917Z,8.73
2023-04-20T13:14:21.369Z,8.76
2023-04-20T13:16:48.315Z,8.68
2023-04-20T13:19:14.770Z,8.64
2023-04-20T13:21:41.024Z,8.60
2023-04-20T13:24:07.325Z,8.57
2023-04-20T13:26:33.639Z,8.45
2023-04-20T13:28:59.939Z,8.41
2023-04-20T13:31:26.266Z,8.43
2023-04-20T13:33:52.575Z,8.42
2023-04-20T13:36:18.887Z,8.44
2023-04-20T13:38:45.994Z,8.39
2023-04-20T13:41:12.270Z,8.37
2023-04-20T13:43:38.510Z,8.26
2023-04-20T13:46:04.812Z,8.21
2023-04-20T13:48:31.169Z,8.15
2023-04-20T13:50:57.423Z,8.16
2023-04-20T13:53:23.689Z,8.10
2023-04-20T13:55:50.038Z,8.10
2023-04-20T13:58:16.307Z,8.13
2023-04-20T14:00:42.543Z,8.14
2023-04-20T14:03:08.859Z,8.20
2023-04-20T14:05:35.199Z,8.27
2023-04-20T14:08:01.493Z,8.33
2023-04-20T14:10:27.794Z,8.37
2023-04-20T14:12:54.111Z,8.38
2023-04-20T14:15:20.356Z,8.32
2023-04-20T14:17:46.785Z,8.35
2023-04-20T14:20:13.073Z,8.37
2023-04-20T14:22:39.399Z,8.30
2023-04-20T14:25:05.727Z,8.21
2023-04-20T14:27:32.085Z,8.15
2023-04-20T14:29:58.425Z,8.09
2023-04-20T14:32:24.729Z,7.96
2023-04-20T14:34:51.075Z,8.00
2023-04-20T14:37:17.343Z,8.12
2023-04-20T14:39:43.577Z,8.22
2023-04-20T14:42:09.832Z,8.27
2023-04-20T14:44:36.061Z,8.30
2023-04-20T14:47:02.456Z,8.36
2023-04-20T14:49:28.744Z,8.40
2023-04-20T14:51:55.006Z,8.29
2023-04-20T14:54:21.358Z,8.00
2023-04-20T14:56:47.652Z,7.98
2023-04-20T14:59:14.175Z,8.04
2023-04-20T15:01:51.342Z,8.04
2023-04-20T15:04:25.423Z,8.10
2023-04-20T15:06:51.844Z,8.12
2023-04-20T15:09:18.082Z,8.20
2023-04-20T15:11:44.333Z,8.21
2023-04-20T15:14:10.572Z,8.31
2023-04-20T15:16:36.953Z,8.53
2023-04-20T15:19:03.308Z,8.79
2023-04-20T15:21:29.538Z,9.12
2023-04-20T15:23:55.827Z,9.55
2023-04-20T15:26:22.099Z,9.84
2023-04-20T15:28:48.389Z,9.60
2023-04-20T15:31:15.935Z,8.95
2023-04-20T15:33:44.093Z,8.77
2023-04-20T15:36:10.989Z,8.81
2023-04-20T15:38:37.248Z,8.77
2023-04-20T15:41:03.583Z,8.97
2023-04-20T15:43:29.816Z,9.00
2023-04-20T15:45:56.123Z,8.99
2023-04-20T15:48:22.423Z,9.13
2023-04-20T15:50:48.678Z,9.01
2023-04-20T15:53:14.964Z,8.99
2023-04-20T15:55:41.230Z,9.02
2023-04-20T15:58:07.497Z,9.11
2023-04-20T16:00:33.834Z,9.23
2023-04-20T16:03:00.280Z,9.39
2023-04-20T16:05:26.728Z,9.75
2023-04-20T16:07:53.049Z,10.11
2023-04-20T16:10:19.298Z,10.31
2023-04-20T16:12:45.557Z,10.54
2023-04-20T16:15:11.888Z,10.74
2023-04-20T16:17:38.169Z,10.72
2023-04-20T16:20:04.503Z,9.74
2023-04-20T16:22:30.797Z,9.71
2023-04-20T16:24:57.104Z,9.72
2023-04-20T16:27:23.389Z,9.55
2023-04-20T16:29:49.656Z,9.55
2023-04-20T16:32:15.900Z,9.34
2023-04-20T16:34:42.177Z,9.39
2023-04-20T16:37:08.462Z,9.35
2023-04-20T16:39:34.748Z,9.39
2023-04-20T16:42:01.049Z,9.43
2023-04-20T16:44:27.295Z,9.45
2023-04-20T16:46:53.647Z,9.42
2023-04-20T16:49:19.917Z,9.23
2023-04-20T16:51:46.207Z,9.05
2023-04-20T16:54:12.544Z,9.08
2023-04-20T16:56:38.824Z,9.07
2023-04-20T16:59:05.076Z,8.99
2023-04-20T17:01:31.341Z,8.89
2023-04-20T17:03:57.677Z,8.28
2023-04-20T17:06:23.960Z,7.32
2023-04-20T17:08:50.307Z,7.32
2023-04-20T17:11:16.563Z,6.56
2023-04-20T17:13:42.816Z,6.54
2023-04-20T17:16:09.104Z,6.44
2023-04-20T17:18:35.417Z,6.74
2023-04-20T17:21:01.655Z,7.03
2023-04-20T17:23:27.880Z,6.95
2023-04-20T17:25:54.179Z,7.06
2023-04-20T17:28:20.432Z,7.35
2023-04-20T17:30:46.705Z,7.51
2023-04-20T17:33:12.932Z,7.65
2023-04-20T17:35:39.167Z,7.71
2023-04-20T17:38:05.478Z,7.79
2023-04-20T17:40:31.770Z,7.83
2023-04-20T17:42:58.025Z,7.91
2023-04-20T17:45:24.428Z,7.90
2023-04-20T17:47:50.705Z,7.90
2023-04-20T17:50:17.065Z,7.87
2023-04-20T17:52:43.372Z,7.84
2023-04-20T17:55:09.628Z,7.87
2023-04-20T17:57:35.864Z,7.88
2023-04-20T18:00:02.111Z,7.87
2023-04-20T18:02:28.470Z,7.83
2023-04-20T18:04:54.919Z,7.83
2023-04-20T18:07:21.322Z,7.74
2023-04-20T18:09:47.639Z,7.74
2023-04-20T18:12:13.879Z,7.74
2023-04-20T18:14:40.181Z,7.75
2023-04-20T18:17:06.421Z,7.76
2023-04-20T18:19:32.652Z,7.76
2023-04-20T18:21:58.901Z,7.76
2023-04-20T18:24:25.139Z,7.80
2023-04-20T18:26:51.368Z,7.84
2023-04-20T18:29:17.614Z,7.70
2023-04-20T18:31:43.963Z,7.57
2023-04-20T18:34:10.281Z,7.54
2023-04-20T18:36:36.534Z,7.52
2023-04-20T18:39:02.767Z,7.47
2023-04-20T18:41:29.031Z,7.40
2023-04-20T18:43:55.324Z,7.36
2023-04-20T18:46:21.666Z,7.36
2023-04-20T18:48:47.914Z,7.39
2023-04-20T18:51:14.224Z,7.49
2023-04-20T18:53:40.514Z,7.59
2023-04-20T18:56:07.618Z,7.62
2023-04-20T18:58:35.368Z,7.66
2023-04-20T19:01:01.716Z,7.75
2023-04-20T19:03:28.130Z,7.76
2023-04-20T19:05:54.467Z,7.78
2023-04-20T19:08:20.710Z,7.78
2023-04-20T19:10:47.003Z,7.85
2023-04-20T19:13:13.295Z,7.79
2023-04-20T19:15:39.549Z,7.83
2023-04-20T19:18:05.815Z,7.84
2023-04-20T19:20:32.098Z,7.91
2023-04-20T19:22:58.389Z,7.89
2023-04-20T19:25:24.684Z,7.72
2023-04-20T19:27:50.974Z,7.51
2023-04-20T19:30:17.219Z,7.46
2023-04-20T19:32:43.525Z,7.46
2023-04-20T19:35:09.784Z,7.49
2023-04-20T19:37:36.053Z,7.47
2023-04-20T19:40:02.323Z,7.47
2023-04-20T19:42:28.589Z,7.49
2023-04-20T19:44:54.820Z,7.50
2023-04-20T19:47:21.133Z,7.37
2023-04-20T19:49:47.447Z,7.29
2023-04-20T19:52:13.706Z,7.30
2023-04-20T19:54:39.962Z,7.32
2023-04-20T19:57:06.187Z,7.33
2023-04-20T19:59:32.483Z,7.32
2023-04-20T20:01:58.907Z,7.18
2023-04-20T20:04:25.326Z,7.11
2023-04-20T20:06:51.655Z,6.86
2023-04-20T20:09:18.440Z,6.93
2023-04-20T20:11:45.857Z,7.00
2023-04-20T20:14:12.093Z,7.13
2023-04-20T20:16:38.331Z,7.18
2023-04-20T20:19:04.562Z,7.24
2023-04-20T20:21:30.830Z,7.35
2023-04-20T20:23:57.144Z,7.31
2023-04-20T20:26:23.405Z,7.19
2023-04-20T20:28:49.688Z,7.14
2023-04-20T20:31:16.032Z,7.12
2023-04-20T20:33:42.323Z,7.14
2023-04-20T20:36:08.588Z,7.10
2023-04-20T20:38:34.826Z,7.10
2023-04-20T20:41:01.085Z,7.18
2023-04-20T20:43:27.364Z,7.32
2023-04-20T20:45:53.698Z,7.37
2023-04-20T20:48:19.937Z,7.27
2023-04-20T20:50:46.229Z,7.24
2023-04-20T20:53:12.525Z,7.25
2023-04-20T20:55:38.836Z,7.19
2023-04-20T20:58:05.108Z,7.20
2023-04-20T21:00:31.411Z,7.15
2023-04-20T21:02:57.902Z,7.07
2023-04-20T21:05:24.278Z,7.15
2023-04-20T21:07:50.509Z,7.24
2023-04-20T21:10:16.778Z,7.25
2023-04-20T21:12:43.127Z,7.27
2023-04-20T21:15:09.391Z,7.25
2023-04-20T21:17:35.688Z,7.25
2023-04-20T21:20:01.959Z,7.21
2023-04-20T21:22:28.208Z,7.21
2023-04-20T21:24:54.464Z,7.26
2023-04-20T21:27:20.713Z,7.35
2023-04-20T21:29:46.978Z,7.40
2023-04-20T21:32:13.316Z,7.48
2023-04-20T21:34:39.615Z,7.48
2023-04-20T21:37:05.831Z,7.26
2023-04-20T21:39:32.279Z,7.10
2023-04-20T21:41:58.548Z,7.10
2023-04-20T21:44:24.792Z,7.08
2023-04-20T21:46:51.054Z,7.13
2023-04-20T21:49:17.450Z,7.21
2023-04-20T21:51:43.914Z,7.29
2023-04-20T21:54:10.186Z,7.29
2023-04-20T21:56:36.441Z,7.29
2023-04-20T21:59:02.683Z,6.81
2023-04-20T22:01:28.942Z,6.87
2023-04-20T22:03:55.402Z,6.61
2023-04-20T22:06:21.756Z,6.15
2023-04-20T22:08:47.989Z,6.07
2023-04-20T22:11:14.222Z,5.99
2023-04-20T22:13:40.503Z,6.22
2023-04-20T22:16:06.828Z,6.04
2023-04-20T22:18:33.145Z,5.30
2023-04-20T22:20:59.433Z,5.21
2023-04-20T22:23:25.740Z,5.14
2023-04-20T22:25:51.998Z,5.36
2023-04-20T22:28:18.258Z,5.68
2023-04-20T22:30:44.541Z,5.93
2023-04-20T22:33:10.849Z,6.10
2023-04-20T22:35:37.120Z,6.27
2023-04-20T22:38:03.379Z,6.42
2023-04-20T22:40:29.617Z,6.30
2023-04-20T22:42:55.865Z,6.47
2023-04-20T22:45:22.108Z,6.57
2023-04-20T22:47:48.450Z,6.60
2023-04-20T22:50:14.768Z,6.65
2023-04-20T22:52:41.015Z,6.72
2023-04-20T22:55:07.259Z,6.67
2023-04-20T22:57:33.532Z,6.74
2023-04-20T22:59:59.794Z,6.82
2023-04-20T23:02:26.160Z,6.92
2023-04-20T23:04:52.515Z,6.94
2023-04-20T23:07:18.830Z,6.98
2023-04-20T23:09:45.064Z,7.08
2023-04-20T23:12:11.305Z,7.22
2023-04-20T23:14:37.833Z,7.18
2023-04-20T23:17:04.082Z,7.27
2023-04-20T23:19:30.322Z,7.29
2023-04-20T23:21:56.583Z,7.31
2023-04-20T23:24:22.832Z,7.29
2023-04-20T23:26:49.078Z,7.23
2023-04-20T23:29:15.453Z,7.24
2023-04-20T23:31:41.778Z,7.17
2023-04-20T23:34:08.179Z,7.11
2023-04-20T23:36:34.843Z,7.15
2023-04-20T23:39:01.175Z,7.17
2023-04-20T23:41:27.442Z,7.16
2023-04-20T23:43:53.695Z,7.17
2023-04-20T23:46:19.955Z,7.17
2023-04-20T23:48:46.251Z,7.14
2023-04-20T23:51:12.647Z,7.00
2023-04-20T23:53:38.897Z,6.92
2023-04-20T23:56:05.147Z,6.89
2023-04-20T23:58:31.441Z,6.83
